Scroll down
FLIGHT INFORMATION
PMDG Flight Operations

PFO519

At Arrival Gate

KOSH
 KFAR
DATE: 2020-11-22
GATE:  -
GATE DEPARTURE: 13:53
TAKEOFF: 14:14
DATE: 2020-11-22
GATE:  -
LANDING: 15:17
GATE ARRIVAL: 15:20
FLIGHT DATA
Crew: 
Speed: 
487 kts
Altitude: 
32,008 ft
Stage Length: 
389.7 nm
Block Time: 
1.5 hrs
Flight Time: 
1.1 hrs
Fuel Used: 
28,816 lb
Cleared Route: KOSH BGOSH STARR KFAR
TRACK DATA
50,000 ft 1,000 kts
AIRCRAFT INFO AND CUMULATIVE STATS
Aircraft Type: 
B744ERF
Registration: 
SELCAL: 
MSN/LN: 
0 / 1
Total Flights: 
11
Total Block Time: 
21.7 hrs
Total Flight Time: 
18.8 hrs
Total Fuel Time: 
422,343 lb
DATALINK LOG | Newest first | Current as of: 2020-12-02 18:34:53
LABEL SEQUENCE CONTENT Dn/Up
QD203515:20 90.5▼ Dn
QC173215:17▼ Dn
2U5345KFAR 221353Z 29009KT 10SM BKN012 BKN017 OVC022 00/M02 A3016 RMK AO2 SLP225 T00001017▲ Up
2S5309KFAR▼ Dn
2U1900KFAR 221353Z 29009KT 10SM BKN012 BKN017 OVC022 00/M02 A3016 RMK AO2 SLP225 T00001017▲ Up
2S1936KFAR▼ Dn
QB143114:14▼ Dn
A35522CLEARED TO KFAR VIA BGOSH STARR. SQUAWK 7675.▲ Up
B35512KOSH KFAR PFO519 N744LG ▼ Dn
QA531113:53 119.8▼ Dn
Q05310[LINK ACK]▲ Up
Q05310[LINK TEST]▼ Dn


AIRCRAFT HISTORY
FLIGHT DATE FLIGHT NO. ORIGIN DESTINATION CLEARED ROUTE BLOCK TIME FLIGHT TIME FUEL USED PILOT
2020-11-22PFO519KFAR KFSD KFAR FAR RUSTD BANEY GUVEY RIRCO STUCK ATY VESTY OBITT VOLGA FSD KFSD0.9 hrs0.7 hrs19,597 lbSteven Perry
2020-11-22PFO519KOSH KFAR KOSH BGOSH STARR KFAR1.5 hrs1.1 hrs28,816 lbSteven Perry
2020-07-20PFO719KMSP KOSH KMSP TAXEE COULT LMFRY DLL OSH RW361.2 hrs0.9 hrs22,634 lbKyle Weber
2020-07-01PFO701KSTL KMSP KSTL WOLTR CONRR KSHEE LEBOY SEXTN MNOSO KICKR OOPEE LAZYY BLUEM HHAMR FARBO ELLKO SAVVG GREAK DOLEE ZESTY RW12R1.4 hrs1.1 hrs25,342 lbKyle Weber
2019-04-14PFO519KDEN KSTL KDEN EXTAN CABET SHAYK MCI ANX HEBNA KOOOP NATEM KAYLA BGMAC DNISE ELBRT STAAN SADEN RW12R2.4 hrs1.9 hrs46,235 lbSteven Perry
2019-04-07PFO801KSLC KDEN KSLC PERTY CHE KDEN1.4 hrs1 hrs22,321 lbJhan Jensen
2019-02-16KMIA KSLC KMIA OHOFO BORLE MEAGN WINCO DOLIE SRQ CHRGE REMIS ROZZI NAITE REDFN LEV LCH ACT HICOE ABI TXO TCC CIM ALS JNC RIFMN HELPR GOSHU SPANE LEEHY BLUPE KAMMP PLAGE PLAGE RW34R4.4 hrs4.1 hrs82,410 lbJhan Jensen
2019-01-30PFO129KFLL KMIA KFLL GRITT SARCO RW270.7 hrs0.2 hrs6,953 lbKyle Weber
2019-01-29PFO128KMIA KFLL KMIA FLL PIONN RW10L0.5 hrs0.2 hrs7,537 lbKyle Weber
2019-01-22PFO122KSLC KMIA BUBBY RUGGD UPJAR BORZI EKR PITMN TAYLR GOSIP KENTO PNH SPS BATIK FUZ ADUKE LURIC NOBBL TURNN FOSIN AEX PEBBY HRV FATSO REDFN BLVNS BUNNZ BACCA CIGAR BAGGS BAARY CYY DEEDS SSCOT RUBOE WALIP LECIT4.2 hrs4 hrs75,798 lbKyle Weber
2018-12-23PFO744KBWI KSLC WONCE TERPZ LINSE BUFFR MCRAY DJB PMM MCW ONL BFF OCS KAADE CICAK LHO CARTR NORDK WEBER3.9 hrs3.7 hrs84,702 lbJhan Jensen